createdAt,value
2023-05-11T03:02:06.660Z,9.40
2023-05-11T03:04:34.616Z,9.40
2023-05-11T03:07:01.781Z,9.30
2023-05-11T03:09:29.165Z,9.30
2023-05-11T03:11:57.278Z,9.40
2023-05-11T03:14:24.679Z,9.40
2023-05-11T03:16:52.414Z,9.40
2023-05-11T03:19:19.798Z,9.30
2023-05-11T03:21:47.700Z,9.30
2023-05-11T03:24:16.067Z,9.20
2023-05-11T03:26:44.182Z,9.30
2023-05-11T03:29:16.923Z,9.20
2023-05-11T03:31:44.187Z,9.30
2023-05-11T03:34:11.689Z,9.30
2023-05-11T03:36:39.819Z,9.40
2023-05-11T03:39:09.402Z,9.40
2023-05-11T03:41:39.103Z,9.40
2023-05-11T03:44:08.389Z,9.40
2023-05-11T03:46:37.807Z,9.30
2023-05-11T03:49:05.942Z,9.20
2023-05-11T03:51:35.109Z,9.10
2023-05-11T03:54:02.465Z,9.00
2023-05-11T03:56:29.738Z,9.10
2023-05-11T03:58:57.328Z,9.20
2023-05-11T04:01:24.569Z,9.20
2023-05-11T04:03:53.393Z,9.20
2023-05-11T04:06:21.055Z,9.10
2023-05-11T04:08:48.313Z,9.00
2023-05-11T04:11:15.642Z,9.10
2023-05-11T04:13:42.923Z,9.10
2023-05-11T04:16:10.176Z,9.10
2023-05-11T04:18:37.413Z,9.10
2023-05-11T04:21:06.215Z,9.00
2023-05-11T04:23:33.385Z,9.00
2023-05-11T04:26:00.789Z,9.00
2023-05-11T04:28:28.158Z,9.00
2023-05-11T04:30:58.676Z,9.00
2023-05-11T04:33:25.918Z,9.10
2023-05-11T04:35:54.375Z,9.10
2023-05-11T04:38:22.374Z,9.20
2023-05-11T04:40:50.719Z,9.20
2023-05-11T04:43:18.536Z,9.20
2023-05-11T04:45:49.713Z,9.20
2023-05-11T04:48:20.362Z,9.30
2023-05-11T04:50:47.997Z,9.40
2023-05-11T04:53:15.345Z,9.40
2023-05-11T04:55:42.522Z,9.40
2023-05-11T04:58:09.748Z,9.40
2023-05-11T05:00:36.994Z,9.30
2023-05-11T05:03:04.497Z,9.40
2023-05-11T05:05:31.679Z,9.30
2023-05-11T05:07:59.075Z,9.30
2023-05-11T05:10:26.316Z,9.30
2023-05-11T05:12:53.532Z,9.30
2023-05-11T05:15:21.322Z,9.30
2023-05-11T05:17:48.548Z,9.20
2023-05-11T05:20:15.982Z,9.10
2023-05-11T05:22:43.264Z,9.20
2023-05-11T05:25:10.631Z,9.20
2023-05-11T05:27:37.762Z,9.20
2023-05-11T05:30:05.520Z,9.30
2023-05-11T05:32:32.694Z,9.30
2023-05-11T05:35:00.004Z,9.30
2023-05-11T05:37:27.137Z,9.20
2023-05-11T05:39:54.272Z,9.30
2023-05-11T05:42:22.415Z,9.30
2023-05-11T05:44:50.011Z,9.40
2023-05-11T05:47:17.242Z,9.40
2023-05-11T05:49:44.383Z,9.50
2023-05-11T05:52:11.592Z,9.60
2023-05-11T05:54:38.957Z,9.70
2023-05-11T05:57:06.561Z,9.70
2023-05-11T05:59:33.690Z,9.70
2023-05-11T06:02:00.966Z,9.60
2023-05-11T06:04:28.321Z,9.70
2023-05-11T06:06:57.801Z,9.60
2023-05-11T06:09:25.023Z,9.70
2023-05-11T06:11:54.090Z,9.70
2023-05-11T06:14:22.478Z,9.70
2023-05-11T06:16:49.943Z,9.80
2023-05-11T06:19:17.621Z,9.80
2023-05-11T06:21:46.071Z,9.90
2023-05-11T06:24:13.311Z,9.80
2023-05-11T06:26:41.111Z,9.80
2023-05-11T06:29:08.276Z,9.70
2023-05-11T06:31:35.560Z,9.70
2023-05-11T06:34:03.199Z,9.90
2023-05-11T06:36:32.176Z,9.90
2023-05-11T06:38:59.397Z,10.00
2023-05-11T06:41:26.800Z,10.20
2023-05-11T06:43:54.034Z,10.20
2023-05-11T06:46:22.332Z,10.30
2023-05-11T06:48:50.295Z,10.40
2023-05-11T06:51:17.561Z,10.50
2023-05-11T06:53:44.830Z,10.50
2023-05-11T06:56:12.122Z,10.30
2023-05-11T06:58:39.413Z,10.40
2023-05-11T07:01:08.017Z,10.40
2023-05-11T07:03:35.821Z,10.40
2023-05-11T07:06:03.492Z,10.30
2023-05-11T07:08:30.703Z,10.50
2023-05-11T07:10:57.873Z,10.60
2023-05-11T07:13:25.156Z,10.70
2023-05-11T07:15:52.803Z,10.60
2023-05-11T07:18:23.306Z,10.60
2023-05-11T07:20:50.796Z,10.70
2023-05-11T07:23:17.958Z,10.70
2023-05-11T07:25:45.144Z,10.60
2023-05-11T07:28:12.515Z,10.70
2023-05-11T07:30:39.780Z,10.90
2023-05-11T07:33:07.060Z,10.90
2023-05-11T07:35:34.274Z,10.90
2023-05-11T07:38:01.532Z,10.90
2023-05-11T07:40:29.046Z,10.90
2023-05-11T07:42:56.225Z,10.90
2023-05-11T07:45:23.475Z,11.00
2023-05-11T07:47:50.996Z,11.00
2023-05-11T07:50:18.514Z,11.10
2023-05-11T07:52:45.874Z,11.30
2023-05-11T07:55:13.085Z,11.40
2023-05-11T07:57:40.348Z,11.30
2023-05-11T08:00:08.392Z,11.40
2023-05-11T08:02:35.766Z,11.40
2023-05-11T08:05:04.062Z,11.30
2023-05-11T08:07:31.364Z,11.40
2023-05-11T08:09:59.733Z,11.50
2023-05-11T08:12:27.242Z,11.60
2023-05-11T08:14:55.292Z,11.60
2023-05-11T08:17:22.581Z,11.60
2023-05-11T08:19:49.736Z,11.70
2023-05-11T08:22:17.111Z,12.00
2023-05-11T08:24:44.228Z,12.00
2023-05-11T08:27:11.892Z,12.30
2023-05-11T08:29:39.186Z,12.30
2023-05-11T08:32:06.467Z,12.40
2023-05-11T08:34:34.301Z,12.50
2023-05-11T08:37:04.383Z,12.50
2023-05-11T08:42:07.616Z,12.70
2023-05-11T08:44:37.683Z,12.70
2023-05-11T08:47:21.927Z,12.70
2023-05-11T08:49:53.010Z,13.00
2023-05-11T08:52:20.591Z,13.20
2023-05-11T08:54:48.173Z,13.20
2023-05-11T08:57:16.674Z,13.20
2023-05-11T08:59:48.473Z,13.30
2023-05-11T09:02:19.899Z,13.50
2023-05-11T09:04:48.784Z,13.50
2023-05-11T09:07:17.949Z,13.70
2023-05-11T09:09:47.182Z,13.90
2023-05-11T09:12:15.438Z,14.00
2023-05-11T09:14:43.345Z,13.90
2023-05-11T09:17:10.832Z,13.90
2023-05-11T09:20:05.139Z,14.10
2023-05-11T09:22:43.002Z,13.80
2023-05-11T09:25:15.013Z,13.90
2023-05-11T09:27:46.303Z,14.20
2023-05-11T09:30:22.875Z,14.50
2023-05-11T09:32:58.947Z,14.60
2023-05-11T09:35:30.174Z,14.50
2023-05-11T09:38:01.552Z,14.40
2023-05-11T09:40:34.316Z,14.30
2023-05-11T09:43:15.937Z,14.30
2023-05-11T09:45:45.782Z,14.20
2023-05-11T09:48:22.200Z,14.30
2023-05-11T09:50:51.100Z,14.20
2023-05-11T09:53:18.817Z,14.10
2023-05-11T09:55:53.075Z,14.10
2023-05-11T09:58:20.569Z,14.10
2023-05-11T10:00:54.074Z,13.90
2023-05-11T10:03:21.419Z,14.00
2023-05-11T10:06:00.350Z,13.90
2023-05-11T10:08:34.154Z,13.90
2023-05-11T10:11:02.646Z,13.90
2023-05-11T10:13:32.128Z,13.90
2023-05-11T10:16:03.371Z,14.00
2023-05-11T10:18:32.465Z,13.80
2023-05-11T10:21:00.157Z,13.80
2023-05-11T10:23:27.436Z,13.90
2023-05-11T10:25:55.205Z,14.20
2023-05-11T10:28:22.506Z,14.30
2023-05-11T10:30:50.220Z,14.30
2023-05-11T10:33:17.985Z,14.30
2023-05-11T10:35:46.064Z,14.10
2023-05-11T10:38:15.028Z,14.00
2023-05-11T10:40:45.280Z,13.70
2023-05-11T10:43:58.875Z,13.70
2023-05-11T10:46:43.967Z,13.80
2023-05-11T10:49:31.925Z,14.10
2023-05-11T10:52:16.663Z,14.10
2023-05-11T10:55:06.558Z,14.20
2023-05-11T10:58:12.721Z,14.30
2023-05-11T11:01:24.815Z,14.30
2023-05-11T11:03:59.632Z,14.30
2023-05-11T11:06:29.309Z,14.40
2023-05-11T11:09:08.150Z,14.30
2023-05-11T11:11:40.563Z,14.30
2023-05-11T11:14:09.704Z,14.30
2023-05-11T11:16:38.049Z,14.30
2023-05-11T11:19:33.057Z,14.10
2023-05-11T11:22:01.346Z,14.10
2023-05-11T11:24:38.277Z,14.00
2023-05-11T11:27:06.669Z,14.10
2023-05-11T11:29:38.265Z,13.80
2023-05-11T11:32:26.580Z,14.00
2023-05-11T11:34:53.823Z,14.30
2023-05-11T11:37:22.354Z,14.30
2023-05-11T11:39:53.396Z,14.20
2023-05-11T11:42:35.610Z,14.00
2023-05-11T11:45:31.019Z,14.00
2023-05-11T11:48:13.353Z,14.10
2023-05-11T11:50:45.711Z,14.10
2023-05-11T11:53:34.839Z,14.10
2023-05-11T11:56:02.366Z,13.90
2023-05-11T11:58:41.623Z,14.00
2023-05-11T12:01:22.826Z,13.90
2023-05-11T12:03:59.638Z,14.00
2023-05-11T12:06:37.065Z,14.60
2023-05-11T12:09:05.353Z,14.60
2023-05-11T12:11:33.109Z,14.80
2023-05-11T12:14:01.159Z,15.00
2023-05-11T12:16:28.692Z,15.20
2023-05-11T12:19:01.065Z,15.30
2023-05-11T12:21:33.635Z,15.40
2023-05-11T12:24:03.213Z,15.60
2023-05-11T12:26:31.591Z,15.60
2023-05-11T12:29:16.493Z,15.70
2023-05-11T12:31:48.676Z,15.90
2023-05-11T12:34:21.955Z,16.00
2023-05-11T12:36:51.005Z,15.90
2023-05-11T12:39:20.216Z,15.50
2023-05-11T12:41:49.132Z,15.70
2023-05-11T12:44:20.684Z,15.90
2023-05-11T12:46:49.704Z,16.20
2023-05-11T12:49:24.811Z,16.20
2023-05-11T12:52:08.044Z,16.30
2023-05-11T12:54:38.129Z,15.90
2023-05-11T12:57:21.936Z,15.90
2023-05-11T12:59:49.175Z,15.90
2023-05-11T13:02:20.687Z,15.60
2023-05-11T13:04:48.478Z,15.70
2023-05-11T13:07:28.190Z,15.80
2023-05-11T13:09:59.868Z,15.90
2023-05-11T13:12:31.685Z,16.00
2023-05-11T13:15:12.757Z,15.70
2023-05-11T13:17:41.987Z,16.00
2023-05-11T13:20:19.565Z,15.90
2023-05-11T13:22:48.381Z,15.50
2023-05-11T13:25:21.014Z,15.50
2023-05-11T13:27:48.511Z,15.00
2023-05-11T13:30:15.849Z,14.90
2023-05-11T13:32:43.168Z,14.80
2023-05-11T13:35:10.596Z,14.70
2023-05-11T13:37:37.842Z,14.80
2023-05-11T13:40:08.924Z,14.80
2023-05-11T13:42:36.876Z,14.90
2023-05-11T13:45:04.555Z,14.90
2023-05-11T13:47:31.796Z,14.90
2023-05-11T13:49:58.997Z,14.80
2023-05-11T13:52:26.177Z,14.90
2023-05-11T13:54:53.338Z,15.20
2023-05-11T13:57:21.130Z,15.20
2023-05-11T13:59:48.982Z,15.20
2023-05-11T14:02:16.321Z,15.10
2023-05-11T14:04:43.555Z,14.70
2023-05-11T14:07:10.780Z,14.70
2023-05-11T14:09:38.024Z,14.30
2023-05-11T14:12:05.574Z,14.20
2023-05-11T14:14:32.976Z,14.00
2023-05-11T14:17:00.346Z,13.90
2023-05-11T14:19:27.593Z,13.70
2023-05-11T14:21:54.866Z,13.80
2023-05-11T14:24:22.668Z,13.80
2023-05-11T14:26:49.896Z,13.70
2023-05-11T14:29:17.368Z,13.70
2023-05-11T14:31:44.973Z,13.60
2023-05-11T14:34:12.557Z,13.50
2023-05-11T14:36:39.814Z,13.40
2023-05-11T14:39:07.279Z,13.50
2023-05-11T14:41:34.476Z,13.30
2023-05-11T14:44:01.690Z,13.20
2023-05-11T14:46:28.978Z,13.30
2023-05-11T14:48:56.264Z,13.20
2023-05-11T14:51:23.423Z,13.10
2023-05-11T14:53:51.396Z,13.10
2023-05-11T14:56:18.692Z,12.90
2023-05-11T14:58:46.896Z,12.80
2023-05-11T15:01:14.160Z,12.90
2023-05-11T15:03:41.569Z,12.90
2023-05-11T15:06:08.780Z,12.80
2023-05-11T15:08:36.087Z,12.80
2023-05-11T15:11:03.245Z,12.80
2023-05-11T15:13:30.645Z,12.80
2023-05-11T15:15:57.973Z,12.80
2023-05-11T15:18:25.312Z,12.90
2023-05-11T15:20:52.477Z,12.80
2023-05-11T15:23:20.039Z,12.90
2023-05-11T15:25:48.635Z,12.90
2023-05-11T15:28:15.968Z,12.70
2023-05-11T15:30:43.092Z,12.70
2023-05-11T15:33:10.666Z,12.70
2023-05-11T15:35:38.029Z,12.50
2023-05-11T15:38:05.523Z,12.30
2023-05-11T15:40:32.636Z,12.20
2023-05-11T15:43:00.597Z,12.20
2023-05-11T15:45:28.814Z,12.10
2023-05-11T15:47:56.678Z,12.00
2023-05-11T15:50:24.478Z,12.10
2023-05-11T15:52:51.675Z,12.10
2023-05-11T15:55:18.898Z,12.20
2023-05-11T15:57:46.040Z,12.30
2023-05-11T16:00:13.980Z,12.40
2023-05-11T16:02:42.729Z,12.40
2023-05-11T16:05:11.295Z,12.50
2023-05-11T16:07:38.727Z,12.40
2023-05-11T16:10:06.604Z,12.20
2023-05-11T16:12:33.752Z,12.30
2023-05-11T16:15:01.042Z,12.40
2023-05-11T16:17:28.277Z,12.40
2023-05-11T16:19:55.435Z,12.50
2023-05-11T16:22:22.647Z,12.30
2023-05-11T16:24:49.780Z,12.30
2023-05-11T16:27:17.076Z,12.30
2023-05-11T16:29:44.242Z,12.20
2023-05-11T16:32:11.377Z,12.10
2023-05-11T16:34:38.674Z,12.20
2023-05-11T16:37:05.971Z,12.30
2023-05-11T16:39:34.226Z,12.30
2023-05-11T16:42:01.455Z,12.10
2023-05-11T16:44:28.622Z,12.10
2023-05-11T16:46:56.573Z,11.90
2023-05-11T16:49:23.915Z,11.80
2023-05-11T16:51:52.532Z,11.70
2023-05-11T16:54:20.625Z,11.70
2023-05-11T16:56:47.997Z,11.70
2023-05-11T16:59:15.273Z,11.80
2023-05-11T17:01:42.522Z,11.90
2023-05-11T17:04:10.238Z,11.80
2023-05-11T17:06:37.575Z,11.90
2023-05-11T17:09:05.125Z,11.90
2023-05-11T17:11:32.369Z,12.00
2023-05-11T17:13:59.588Z,12.10
2023-05-11T17:16:26.949Z,12.00
2023-05-11T17:18:54.704Z,12.00
2023-05-11T17:21:23.818Z,12.10
2023-05-11T17:23:50.985Z,12.10
2023-05-11T17:26:18.252Z,12.00
2023-05-11T17:28:45.428Z,11.80
2023-05-11T17:31:14.764Z,11.70
2023-05-11T17:33:42.726Z,11.70
2023-05-11T17:36:10.306Z,11.70
2023-05-11T17:38:38.545Z,11.60
2023-05-11T17:41:05.933Z,11.40
2023-05-11T17:43:34.042Z,11.50
2023-05-11T17:46:03.985Z,11.50
2023-05-11T17:48:32.144Z,11.50
2023-05-11T17:50:59.434Z,11.20
2023-05-11T17:53:27.358Z,11.30
2023-05-11T17:55:57.654Z,11.30
2023-05-11T17:58:24.835Z,11.30
2023-05-11T18:00:52.093Z,11.30
2023-05-11T18:03:19.604Z,11.30
2023-05-11T18:05:49.053Z,11.30
2023-05-11T18:08:16.863Z,11.30
2023-05-11T18:10:44.478Z,11.10
2023-05-11T18:13:11.754Z,11.10
2023-05-11T18:15:39.018Z,11.10
2023-05-11T18:18:06.469Z,11.10
2023-05-11T18:20:34.425Z,10.90
2023-05-11T18:23:01.725Z,10.90
2023-05-11T18:25:31.873Z,10.90
2023-05-11T18:28:02.474Z,10.80
2023-05-11T18:30:30.222Z,10.80
2023-05-11T18:32:58.724Z,10.70
2023-05-11T18:35:26.129Z,10.60
2023-05-11T18:37:53.435Z,10.50
2023-05-11T18:40:21.072Z,10.40
2023-05-11T18:42:48.723Z,10.40
2023-05-11T18:45:17.513Z,10.40
2023-05-11T18:47:46.272Z,10.50
2023-05-11T18:50:13.878Z,10.50
2023-05-11T18:52:41.081Z,10.50
2023-05-11T18:55:08.927Z,10.50
2023-05-11T18:57:37.344Z,10.50
2023-05-11T19:00:05.495Z,10.50
2023-05-11T19:02:33.760Z,10.50
2023-05-11T19:05:01.325Z,10.50
2023-05-11T19:07:28.707Z,10.50
2023-05-11T19:09:56.149Z,10.40
2023-05-11T19:12:23.371Z,10.40
2023-05-11T19:14:53.073Z,10.30
2023-05-11T19:17:20.548Z,10.30
2023-05-11T19:19:47.792Z,10.20
2023-05-11T19:22:15.084Z,10.10
2023-05-11T19:24:42.293Z,10.20
2023-05-11T19:27:09.974Z,10.10
2023-05-11T19:29:37.131Z,10.10
2023-05-11T19:32:04.665Z,10.10
2023-05-11T19:34:31.927Z,10.00
2023-05-11T19:36:59.367Z,9.90
2023-05-11T19:39:26.858Z,9.90
2023-05-11T19:41:54.115Z,9.80
2023-05-11T19:44:21.355Z,9.80
2023-05-11T19:46:48.693Z,9.80
2023-05-11T19:49:16.700Z,9.70
2023-05-11T19:51:43.945Z,9.70
2023-05-11T19:54:11.531Z,9.60
2023-05-11T19:56:39.309Z,9.60
2023-05-11T19:59:06.679Z,9.70
2023-05-11T20:01:33.966Z,9.60
2023-05-11T20:04:01.761Z,9.60
2023-05-11T20:06:29.124Z,9.50
2023-05-11T20:08:56.843Z,9.20
2023-05-11T20:11:25.356Z,9.00
2023-05-11T20:13:53.464Z,9.00
2023-05-11T20:16:20.786Z,9.00
2023-05-11T20:18:48.251Z,9.10
2023-05-11T20:21:16.628Z,9.20
2023-05-11T20:23:44.117Z,9.20
2023-05-11T20:26:11.295Z,9.30
2023-05-11T20:28:39.497Z,9.30
2023-05-11T20:31:06.901Z,9.30
2023-05-11T20:36:04.651Z,9.30
2023-05-11T20:38:32.602Z,9.30
2023-05-11T20:40:59.786Z,9.20
2023-05-11T20:43:27.242Z,9.20
2023-05-11T20:45:54.785Z,9.10
2023-05-11T20:48:32.456Z,9.10
2023-05-11T20:51:06.037Z,9.10
2023-05-11T20:53:33.380Z,9.10
2023-05-11T20:56:02.565Z,9.10
2023-05-11T20:58:31.587Z,8.90
